Time;durP1;ratioP1;P1;durP2;ratioP2;P2;SDS_P1;SDS_P2;PMS_P1;PMS_P2;Temp;Humidity;BMP_temperature;BMP_pressure;BME280_temperature;BME280_humidity;BME280_pressure;Samples;Min_cycle;Max_cycle;Signal;HPM_P1;HPM_P2
2022/04/09 00:01:06;;;;;;;1.67;0.43;;;12.80;54.40;;;11.28;59.73;93715.50;4895472;28;20309;-63
2022/04/09 00:03:33;;;;;;;1.40;0.47;;;12.80;54.60;;;11.30;60.28;93718.66;4870229;28;20375;-63
2022/04/09 00:05:59;;;;;;;1.13;0.50;;;12.80;55.20;;;11.28;60.84;93726.81;4913227;28;20363;-65
2022/04/09 00:08:25;;;;;;;1.52;0.47;;;12.70;56.30;;;11.26;60.64;93723.63;4891911;28;20368;-65
2022/04/09 00:10:51;;;;;;;2.38;0.98;;;12.70;56.60;;;11.27;61.35;93732.31;4890899;28;20378;-63
2022/04/09 00:13:19;;;;;;;2.60;1.02;;;12.70;56.70;;;11.27;61.11;93729.69;4882519;28;20560;-64
2022/04/09 00:15:45;;;;;;;2.15;0.50;;;12.70;56.90;;;11.25;61.15;93732.56;4918805;28;20370;-63
2022/04/09 00:18:15;;;;;;;2.20;0.50;;;12.70;57.30;;;11.27;61.14;93751.53;4869588;28;20489;-64
2022/04/09 00:20:41;;;;;;;1.70;0.50;;;12.70;57.60;;;11.27;61.73;93740.22;4925357;28;20380;-63
2022/04/09 00:23:10;;;;;;;6.18;1.00;;;12.70;58.60;;;11.28;62.36;93763.66;4859618;28;20373;-64
2022/04/09 00:25:36;;;;;;;0.70;0.30;;;12.60;58.90;;;11.28;63.08;93794.44;4914147;28;20737;-64
2022/04/09 00:28:02;;;;;;;4.20;0.60;;;12.60;59.90;;;11.24;63.77;93788.09;4927430;28;20391;-65
2022/04/09 00:30:28;;;;;;;2.97;0.55;;;12.50;62.50;;;11.14;65.59;93791.44;4869126;28;20215;-65
2022/04/09 00:32:55;;;;;;;0.63;0.30;;;12.30;63.90;;;11.05;65.75;93785.00;4889797;28;20508;-65
2022/04/09 00:35:21;;;;;;;1.50;0.65;;;12.30;64.90;;;10.95;67.29;93798.84;4863686;28;20456;-65
2022/04/09 00:37:47;;;;;;;1.60;0.50;;;12.20;65.80;;;10.84;68.16;93799.78;4883050;28;20337;-65
2022/04/09 00:40:18;;;;;;;2.22;0.50;;;12.00;66.20;;;10.75;68.14;93785.50;4907184;28;20372;-65
2022/04/09 00:42:44;;;;;;;3.20;0.70;;;11.90;66.80;;;10.66;69.57;93792.22;4884499;28;20392;-64
2022/04/09 00:45:11;;;;;;;1.85;0.50;;;11.80;67.80;;;10.57;69.47;93839.16;4910536;28;20716;-64
2022/04/09 00:47:37;;;;;;;1.48;0.40;;;11.70;68.80;;;10.49;71.78;93802.00;4898923;28;20443;-63
2022/04/09 00:50:05;;;;;;;2.03;0.43;;;11.60;70.60;;;10.37;72.59;93807.38;4897373;28;20250;-63
2022/04/09 00:52:33;;;;;;;4.05;0.50;;;11.50;72.50;;;10.25;73.28;93820.63;4885751;28;20376;-64
2022/04/09 00:54:59;;;;;;;0.98;0.35;;;11.30;73.30;;;10.10;75.13;93836.13;4911621;28;20345;-64
2022/04/09 00:57:25;;;;;;;2.53;0.45;;;11.10;74.00;;;9.96;77.06;93871.66;4901249;28;20276;-63
2022/04/09 00:59:51;;;;;;;2.63;0.55;;;10.90;75.70;;;9.79;77.50;93945.94;4882745;28;20341;-63
2022/04/09 01:02:18;;;;;;;4.50;0.40;;;10.60;76.70;;;9.46;76.79;93975.53;4905039;28;20391;-63
2022/04/09 01:04:44;;;;;;;2.08;0.30;;;10.10;76.80;;;9.08;76.87;93981.34;4905097;28;20489;-63
2022/04/09 01:07:10;;;;;;;1.25;0.10;;;9.60;74.90;;;8.74;76.24;93996.06;4905391;28;20820;-63
2022/04/09 01:09:36;;;;;;;0.30;0.20;;;9.40;75.20;;;8.51;76.26;94004.72;4901345;28;20468;-63
2022/04/09 01:12:02;;;;;;;0.50;0.20;;;9.20;75.20;;;8.29;76.64;94003.66;4900380;28;20695;-63
2022/04/09 01:14:29;;;;;;;2.47;0.20;;;9.10;74.40;;;8.06;76.54;94014.09;4889657;28;20364;-63
2022/04/09 01:16:56;;;;;;;1.05;0.20;;;9.00;75.70;;;7.88;77.11;94038.50;4915066;28;20376;-63
2022/04/09 01:19:23;;;;;;;0.35;0.10;;;8.70;75.90;;;7.68;76.97;94038.75;4917743;28;20385;-63
2022/04/09 01:21:49;;;;;;;0.38;0.20;;;8.70;76.10;;;7.54;77.96;94059.06;4889827;28;20440;-63
2022/04/09 01:24:15;;;;;;;0.52;0.10;;;8.60;77.40;;;7.38;77.90;94076.16;4882917;28;20262;-62
2022/04/09 01:26:43;;;;;;;0.88;0.30;;;8.30;76.90;;;7.24;78.31;94079.94;4916682;28;20327;-63
2022/04/09 01:29:09;;;;;;;0.70;0.10;;;8.20;77.00;;;7.05;78.47;94101.84;4858048;28;20436;-63
2022/04/09 01:31:35;;;;;;;1.75;0.10;;;8.00;77.20;;;6.87;78.88;94120.09;4900219;28;20778;-62
2022/04/09 01:34:01;;;;;;;1.90;0.20;;;7.80;78.10;;;6.71;79.09;94124.06;4897009;28;20327;-63
2022/04/09 01:36:27;;;;;;;0.20;0.10;;;7.70;79.10;;;6.54;80.28;94129.00;4937592;22;20420;-63
2022/04/09 01:38:53;;;;;;;0.13;0.10;;;7.50;80.30;;;6.35;80.49;94143.00;4958644;28;20413;-63
2022/04/09 01:41:19;;;;;;;0.10;0.10;;;7.20;80.60;;;6.23;80.63;94147.28;4938738;28;20238;-62
2022/04/09 01:43:45;;;;;;;0.30;0.10;;;7.20;80.40;;;6.09;80.86;94176.06;4908809;28;20286;-63
2022/04/09 01:46:11;;;;;;;0.20;0.10;;;7.10;78.50;;;5.93;80.26;94186.97;4934339;28;20769;-63
2022/04/09 01:48:37;;;;;;;1.00;0.10;;;6.80;79.60;;;5.77;80.67;94197.84;4902393;28;20304;-63
2022/04/09 01:51:03;;;;;;;0.10;0.10;;;6.70;79.60;;;5.62;81.13;94210.31;4905747;28;20311;-63
2022/04/09 01:53:30;;;;;;;0.25;0.10;;;6.60;79.60;;;5.48;80.47;94212.97;4919605;28;20442;-62
2022/04/09 01:55:56;;;;;;;0.20;0.15;;;6.60;78.00;;;5.29;79.48;94252.88;4889562;28;20346;-62
2022/04/09 01:58:22;;;;;;;0.40;0.10;;;6.10;78.40;;;5.05;80.62;94287.38;4900466;28;20354;-63
2022/04/09 02:00:48;;;;;;;0.47;0.10;;;5.90;79.00;;;4.85;80.57;94293.34;4909878;28;20442;-62
2022/04/09 02:03:14;;;;;;;0.10;0.10;;;5.80;78.80;;;4.63;79.29;94315.34;4937753;28;20371;-62
2022/04/09 02:05:40;;;;;;;0.10;0.10;;;5.50;78.30;;;4.44;80.10;94316.06;4915260;28;20500;-62
2022/04/09 02:08:07;;;;;;;0.10;0.10;;;5.40;78.70;;;4.22;79.57;94323.97;4903400;28;20350;-63
2022/04/09 02:10:34;;;;;;;1.90;0.20;;;5.20;79.00;;;4.15;80.21;94328.34;4889809;28;20470;-64
2022/04/09 02:13:01;;;;;;;0.10;0.10;;;5.40;78.40;;;4.03;80.01;94349.88;4905484;28;20449;-65
2022/04/09 02:15:27;;;;;;;0.10;0.10;;;5.10;78.70;;;3.90;80.46;94345.44;4902867;28;20295;-64
2022/04/09 02:17:53;;;;;;;0.20;0.10;;;5.00;79.30;;;3.75;80.45;94360.31;4886941;28;20350;-64
2022/04/09 02:20:19;;;;;;;0.10;0.10;;;4.70;79.70;;;3.62;80.93;94394.81;4884434;28;20554;-64
2022/04/09 02:22:45;;;;;;;0.28;0.20;;;4.60;80.70;;;3.53;81.17;94419.34;4899971;28;20356;-63
2022/04/09 02:25:14;;;;;;;0.32;0.10;;;4.70;80.70;;;3.53;81.75;94430.53;4907578;28;20735;-63
2022/04/09 02:27:40;;;;;;;0.10;0.10;;;4.80;80.10;;;3.50;81.42;94449.09;4914833;28;20324;-62
2022/04/09 02:30:08;;;;;;;0.20;0.10;;;4.80;80.40;;;3.43;82.08;94457.84;4901034;28;20352;-63
2022/04/09 02:33:01;;;;;;;0.10;0.10;;;4.70;80.10;;;3.34;83.62;94457.13;4904676;28;20629;-63
2022/04/09 02:35:28;;;;;;;0.15;0.15;;;4.60;80.60;;;3.32;81.92;94461.72;4905065;28;20449;-64
2022/04/09 02:37:54;;;;;;;0.10;0.10;;;4.70;80.50;;;3.31;81.97;94480.91;4901498;28;20184;-63
2022/04/09 02:40:20;;;;;;;2.63;1.85;;;4.70;80.20;;;3.33;82.29;94497.09;4915192;28;20753;-63
2022/04/09 02:42:46;;;;;;;2.25;1.30;;;4.80;80.10;;;3.27;82.06;94514.25;4905292;28;20709;-63
2022/04/09 02:45:12;;;;;;;0.20;0.20;;;4.60;80.20;;;3.22;82.34;94531.38;4874640;28;20050;-64
2022/04/09 02:47:38;;;;;;;3.92;2.45;;;4.50;80.10;;;3.13;82.34;94535.84;4924392;28;20295;-64
2022/04/09 02:50:06;;;;;;;1.23;0.73;;;4.40;80.90;;;3.06;82.77;94550.56;4909462;28;20354;-64
2022/04/09 02:52:39;;;;;;;0.43;0.20;;;4.20;81.10;;;2.99;83.26;94552.28;4930671;28;20332;-64
2022/04/09 02:55:05;;;;;;;1.58;0.30;;;4.20;81.00;;;2.96;82.77;94566.41;4906383;28;20406;-63
2022/04/09 02:57:32;;;;;;;0.38;0.20;;;4.30;81.00;;;2.94;82.97;94578.78;4918056;28;20387;-62
2022/04/09 02:59:59;;;;;;;0.63;0.40;;;4.30;81.00;;;2.94;83.08;94583.97;4885759;28;20485;-63
2022/04/09 03:02:25;;;;;;;1.25;0.50;;;4.40;81.00;;;2.96;83.09;94595.00;4900276;28;20793;-63
2022/04/09 03:04:52;;;;;;;0.90;0.70;;;4.50;80.60;;;2.93;83.03;94605.72;4869785;28;20314;-63
2022/04/09 03:07:18;;;;;;;1.52;1.05;;;4.40;80.60;;;2.93;82.90;94623.88;4887314;28;20510;-63
2022/04/09 03:09:44;;;;;;;1.35;1.00;;;4.40;80.60;;;2.91;83.07;94628.44;4943958;28;20291;-63
2022/04/09 03:12:10;;;;;;;4.32;1.90;;;4.30;80.40;;;2.90;83.13;94650.22;4906634;28;20501;-66
2022/04/09 03:14:36;;;;;;;4.40;2.40;;;4.30;80.80;;;2.90;83.44;94663.19;4920957;28;20402;-65
2022/04/09 03:17:03;;;;;;;3.00;2.00;;;4.40;81.50;;;2.93;83.83;94683.63;4890106;28;20184;-67
2022/04/09 03:19:29;;;;;;;1.27;1.10;;;4.50;81.00;;;2.91;83.60;94693.38;4905936;28;20423;-66
2022/04/09 03:21:55;;;;;;;2.55;1.10;;;4.40;80.20;;;2.88;83.46;94704.13;4958581;28;20595;-67
2022/04/09 03:24:21;;;;;;;1.60;1.20;;;4.30;80.40;;;2.90;83.60;94704.75;4895314;28;20321;-67
2022/04/09 03:26:47;;;;;;;1.52;1.20;;;4.30;80.40;;;2.91;83.51;94703.75;4944685;28;20376;-67
2022/04/09 03:29:13;;;;;;;1.77;1.33;;;4.40;80.30;;;2.94;83.47;94720.78;4943286;28;20399;-66
2022/04/09 03:31:39;;;;;;;1.50;1.40;;;4.60;80.30;;;2.99;83.70;94732.28;4873852;28;20765;-61
2022/04/09 03:34:06;;;;;;;1.70;1.20;;;4.70;79.60;;;3.02;83.47;94750.09;4899718;28;20469;-64
2022/04/09 03:36:32;;;;;;;2.15;1.45;;;4.70;79.30;;;3.03;83.14;94759.50;4937266;28;20392;-62
2022/04/09 03:38:58;;;;;;;3.95;2.95;;;4.60;78.90;;;3.04;83.40;94771.50;4921377;28;20431;-63
2022/04/09 03:41:24;;;;;;;2.65;1.95;;;4.60;79.30;;;3.03;83.21;94782.88;4889486;28;20408;-62
2022/04/09 03:43:51;;;;;;;1.35;1.23;;;4.70;79.20;;;3.03;82.56;94795.06;4904663;28;20374;-64
2022/04/09 03:46:17;;;;;;;1.58;1.30;;;4.50;78.80;;;2.99;82.95;94789.41;4933744;28;20348;-62
2022/04/09 03:48:43;;;;;;;2.40;1.48;;;4.50;79.30;;;3.03;83.17;94795.06;4888012;28;20310;-62
2022/04/09 03:51:10;;;;;;;2.30;1.30;;;4.60;79.70;;;3.03;83.37;94811.47;4918762;28;20356;-62
2022/04/09 03:53:36;;;;;;;2.95;1.48;;;4.60;79.50;;;3.01;83.12;94829.00;4931519;28;20604;-62
2022/04/09 03:56:04;;;;;;;1.70;1.40;;;4.50;79.90;;;3.00;83.63;94848.19;4934831;28;20367;-63
2022/04/09 03:58:30;;;;;;;2.83;1.85;;;4.50;80.10;;;2.96;83.53;94853.88;4921224;28;20420;-62
2022/04/09 04:00:56;;;;;;;2.70;1.90;;;4.40;80.30;;;2.95;83.46;94873.06;4905150;28;20287;-62
2022/04/09 04:03:23;;;;;;;2.10;1.75;;;4.40;80.10;;;2.96;83.43;94883.28;4905165;28;20496;-63
2022/04/09 04:05:49;;;;;;;2.38;1.95;;;4.40;79.80;;;2.95;83.39;94891.22;4920437;28;20327;-63
2022/04/09 04:08:15;;;;;;;3.88;2.65;;;4.50;79.90;;;2.94;83.21;94893.03;4910549;28;20653;-62
2022/04/09 04:10:41;;;;;;;3.17;2.17;;;4.40;79.60;;;2.91;83.21;94908.91;4915325;28;20211;-63
2022/04/09 04:13:07;;;;;;;2.78;2.00;;;4.40;79.60;;;2.89;83.28;94900.50;4885956;28;20453;-63
2022/04/09 04:15:34;;;;;;;2.97;1.98;;;4.40;79.60;;;2.86;83.34;94911.22;4899409;28;20499;-63
2022/04/09 04:18:03;;;;;;;3.72;2.25;;;4.30;79.50;;;2.83;83.68;94924.56;4928987;28;20474;-66
2022/04/09 04:20:29;;;;;;;2.75;2.13;;;4.30;79.60;;;2.79;83.36;94936.25;4874006;28;20739;-63
2022/04/09 04:22:55;;;;;;;2.55;1.77;;;4.20;80.10;;;2.76;83.54;94939.22;4918170;28;20591;-63
2022/04/09 04:25:21;;;;;;;2.00;1.77;;;4.10;80.00;;;2.67;82.75;94935.00;4961729;28;20387;-65
2022/04/09 04:27:51;;;;;;;2.25;1.88;;;4.00;80.40;;;2.65;83.54;94937.78;4891354;28;20364;-68
2022/04/09 04:30:17;;;;;;;2.30;1.88;;;4.10;80.60;;;2.63;84.00;94944.94;4931887;28;20335;-66
2022/04/09 04:32:43;;;;;;;2.30;1.85;;;4.10;80.50;;;2.60;83.81;94965.22;4933717;28;20404;-67
2022/04/09 04:35:10;;;;;;;3.55;1.67;;;4.00;80.70;;;2.58;83.69;94946.41;4959635;28;20491;-66
2022/04/09 04:37:37;;;;;;;2.40;1.70;;;4.00;80.70;;;2.59;83.86;94961.00;4916621;28;20395;-67
2022/04/09 04:40:05;;;;;;;2.88;2.45;;;4.00;80.50;;;2.55;83.97;94978.72;4921222;28;20322;-67
2022/04/09 04:42:31;;;;;;;7.05;5.13;;;3.90;80.10;;;2.55;84.04;94983.09;4921189;28;20329;-67
2022/04/09 04:44:57;;;;;;;3.25;2.65;;;4.00;80.90;;;2.54;84.03;94991.84;4923340;28;20355;-67
2022/04/09 04:47:23;;;;;;;3.20;2.20;;;3.90;79.80;;;2.49;84.04;94999.31;4888393;28;20413;-67
2022/04/09 04:49:49;;;;;;;3.85;2.60;;;3.80;80.60;;;2.43;83.75;95011.97;4909022;28;20584;-67
2022/04/09 04:52:15;;;;;;;4.85;2.90;;;3.70;80.30;;;2.41;83.70;95013.94;4903598;28;20378;-67
2022/04/09 04:54:41;;;;;;;3.22;2.60;;;3.80;79.90;;;2.44;83.99;95018.78;4920385;28;20512;-67
2022/04/09 04:57:10;;;;;;;6.00;3.58;;;3.90;80.10;;;2.41;83.76;95039.88;4904064;28;20361;-67
2022/04/09 04:59:36;;;;;;;4.57;3.75;;;3.80;80.10;;;2.41;84.32;95052.84;4903948;28;20269;-67
2022/04/09 05:02:05;;;;;;;3.97;3.05;;;3.90;80.60;;;2.44;84.38;95054.31;4900429;28;20368;-67
2022/04/09 05:04:31;;;;;;;5.72;3.42;;;4.00;80.40;;;2.45;83.87;95068.91;4889835;28;20431;-68
2022/04/09 05:06:57;;;;;;;5.20;3.53;;;4.00;80.20;;;2.47;84.68;95061.75;4889807;28;20207;-67
2022/04/09 05:09:23;;;;;;;3.70;3.28;;;4.10;80.20;;;2.45;84.76;95067.13;4939061;28;20347;-67
2022/04/09 05:11:49;;;;;;;4.35;3.20;;;4.00;80.80;;;2.46;84.63;95076.53;4919553;28;20548;-68
2022/04/09 05:14:15;;;;;;;4.68;3.63;;;4.10;80.60;;;2.47;84.18;95101.50;4921037;28;20564;-68
2022/04/09 05:16:41;;;;;;;4.10;3.63;;;4.00;80.70;;;2.50;84.90;95115.16;4927165;28;20544;-68
2022/04/09 05:19:07;;;;;;;7.85;4.05;;;4.00;80.70;;;2.49;84.75;95119.53;4902375;28;20398;-67
2022/04/09 05:21:33;;;;;;;5.70;4.43;;;4.10;80.80;;;2.51;84.94;95127.16;4934077;28;20379;-68
2022/04/09 05:24:00;;;;;;;6.20;5.05;;;4.00;80.80;;;2.51;84.79;95127.97;4918724;28;20533;-68
2022/04/09 05:26:26;;;;;;;6.68;4.45;;;4.10;80.80;;;2.50;84.94;95138.50;4917708;28;20386;-68
2022/04/09 05:28:55;;;;;;;6.03;4.78;;;4.00;80.80;;;2.47;85.15;95142.22;4916436;28;20711;-67
2022/04/09 05:31:27;;;;;;;7.85;5.43;;;4.00;80.80;;;2.46;85.40;95158.75;4916943;28;20746;-67
2022/04/09 05:33:56;;;;;;;4.50;3.88;;;4.00;81.20;;;2.45;85.66;95155.34;4919607;28;20307;-68
2022/04/09 05:36:22;;;;;;;5.35;4.53;;;4.00;81.20;;;2.51;85.37;95171.28;4902143;28;20312;-68
2022/04/09 05:38:49;;;;;;;6.55;4.55;;;4.10;80.90;;;2.50;85.89;95180.84;4923648;28;20346;-67
2022/04/09 05:41:15;;;;;;;5.35;4.35;;;4.10;81.20;;;2.52;85.85;95193.66;4919532;28;20536;-68
2022/04/09 05:43:41;;;;;;;5.43;4.22;;;4.10;81.50;;;2.54;85.83;95200.31;4872887;28;20354;-67
2022/04/09 05:46:07;;;;;;;6.13;4.72;;;4.20;81.20;;;2.57;85.95;95209.56;4915243;28;20432;-64
2022/04/09 05:48:34;;;;;;;6.50;5.03;;;4.30;81.10;;;2.57;85.63;95220.75;4887443;28;20412;-66
2022/04/09 05:51:00;;;;;;;6.13;5.38;;;4.10;81.30;;;2.56;86.01;95223.50;4887324;28;20374;-66
2022/04/09 05:53:26;;;;;;;6.45;5.72;;;4.10;81.30;;;2.57;86.38;95232.91;4871255;28;20479;-66
2022/04/09 05:55:52;;;;;;;7.05;5.63;;;4.20;81.30;;;2.59;86.12;95234.38;4890204;28;20385;-67
2022/04/09 05:58:18;;;;;;;9.38;6.30;;;4.20;81.30;;;2.65;86.48;95232.91;4902275;28;20366;-67
2022/04/09 06:00:44;;;;;;;9.77;6.43;;;4.30;81.20;;;2.63;86.49;95240.88;4918782;28;20646;-67
2022/04/09 06:03:11;;;;;;;10.00;7.68;;;4.30;81.70;;;2.67;86.70;95249.94;4905470;28;20599;-67
2022/04/09 06:05:37;;;;;;;8.02;6.72;;;4.30;81.10;;;2.68;86.00;95255.97;4902437;28;20412;-67
2022/04/09 06:08:03;;;;;;;8.98;6.90;;;4.20;81.20;;;2.65;86.44;95270.06;4885103;28;20590;-67
2022/04/09 06:10:30;;;;;;;8.40;7.00;;;4.10;81.50;;;2.67;86.63;95272.50;4918804;28;20397;-66
2022/04/09 06:12:56;;;;;;;8.32;6.70;;;4.30;81.10;;;2.72;86.38;95275.47;4906115;28;20390;-66
2022/04/09 06:15:22;;;;;;;8.05;6.80;;;4.50;80.50;;;2.71;86.06;95282.41;4901827;28;20415;-66
2022/04/09 06:17:48;;;;;;;10.30;7.13;;;4.30;80.10;;;2.72;85.83;95285.84;4911159;28;20258;-66
2022/04/09 06:20:16;;;;;;;7.60;6.10;;;4.40;80.30;;;2.76;86.21;95287.16;4902539;28;20541;-64
2022/04/09 06:22:42;;;;;;;8.85;6.60;;;4.50;79.80;;;2.78;86.04;95295.59;4915229;28;20367;-66
2022/04/09 06:25:08;;;;;;;8.55;6.32;;;4.50;80.10;;;2.79;86.00;95302.41;4886558;28;20366;-67
2022/04/09 06:27:39;;;;;;;7.03;5.60;;;4.50;80.40;;;2.77;85.58;95296.56;4936564;28;20438;-68
2022/04/09 06:30:06;;;;;;;8.40;6.43;;;4.30;79.40;;;2.78;85.78;95305.97;4954112;28;20707;-66
2022/04/09 06:32:32;;;;;;;6.65;5.78;;;4.40;79.90;;;2.79;85.42;95307.59;4909649;28;20496;-67
2022/04/09 06:34:58;;;;;;;7.57;6.55;;;4.40;80.00;;;2.80;85.60;95309.22;4903297;28;20474;-66
2022/04/09 06:37:24;;;;;;;7.18;6.13;;;4.40;80.00;;;2.79;85.47;95323.19;4893553;28;20373;-67
2022/04/09 06:39:51;;;;;;;9.65;6.28;;;4.40;80.00;;;2.78;85.67;95329.34;4903637;28;20303;-68
2022/04/09 06:42:17;;;;;;;8.48;6.55;;;4.40;80.10;;;2.79;85.46;95328.38;4872096;28;20496;-68
2022/04/09 06:44:43;;;;;;;8.25;6.22;;;4.40;80.10;;;2.81;85.93;95336.00;4877064;28;20695;-67
2022/04/09 06:47:09;;;;;;;7.38;5.97;;;4.40;79.60;;;2.79;85.61;95343.94;4925169;28;20347;-67
2022/04/09 06:49:38;;;;;;;8.48;6.15;;;4.40;79.80;;;2.78;85.17;95342.31;4901764;28;20375;-68
2022/04/09 06:52:05;;;;;;;8.82;7.05;;;4.30;79.80;;;2.76;85.32;95344.28;4910036;28;20306;-67
2022/04/09 06:54:31;;;;;;;9.77;6.00;;;4.40;79.80;;;2.77;85.29;95345.91;4905940;28;20277;-66
2022/04/09 06:56:57;;;;;;;9.90;6.55;;;4.40;79.10;;;2.79;85.06;95356.94;4899333;28;20511;-65
2022/04/09 06:59:23;;;;;;;10.55;6.65;;;4.50;79.20;;;2.80;84.98;95357.75;4885955;28;20317;-67
2022/04/09 07:01:50;;;;;;;11.27;6.50;;;4.40;79.10;;;2.81;85.08;95365.38;4902164;28;20313;-65
2022/04/09 07:04:16;;;;;;;10.55;6.82;;;4.50;78.90;;;2.84;84.88;95362.44;4896424;28;20261;-66
2022/04/09 07:06:45;;;;;;;9.43;6.30;;;4.60;78.80;;;2.91;84.75;95360.03;4895452;28;20355;-66
2022/04/09 07:09:12;;;;;;;9.27;6.93;;;4.70;78.10;;;2.98;84.58;95363.63;4916261;28;20512;-67
2022/04/09 07:11:39;;;;;;;10.50;7.32;;;4.80;77.50;;;3.07;84.56;95365.25;4871716;28;20827;-66
2022/04/09 07:14:05;;;;;;;9.57;7.28;;;5.00;77.50;;;3.17;84.42;95378.91;4909530;28;20315;-65
2022/04/09 07:16:31;;;;;;;10.02;6.68;;;5.10;77.10;;;3.27;84.21;95368.34;4901708;28;20276;-65
2022/04/09 07:18:58;;;;;;;10.43;6.88;;;5.20;76.00;;;3.35;84.03;95371.75;4866735;28;20368;-65
2022/04/09 07:21:24;;;;;;;9.45;6.32;;;5.30;76.30;;;3.42;83.53;95377.16;4958317;28;20412;-66
2022/04/09 07:23:50;;;;;;;8.02;6.50;;;5.40;75.10;;;3.49;83.27;95385.91;4909036;28;20350;-66
2022/04/09 07:26:18;;;;;;;9.75;5.97;;;5.40;75.60;;;3.53;82.89;95391.59;4949523;28;20324;-68
2022/04/09 07:28:44;;;;;;;9.52;7.25;;;5.40;75.60;;;3.59;83.25;95394.34;4904367;28;20321;-66
2022/04/09 07:31:10;;;;;;;10.80;7.70;;;5.50;75.90;;;3.69;83.43;95400.22;4882681;28;20351;-65
2022/04/09 07:33:36;;;;;;;11.95;7.43;;;5.70;75.00;;;3.82;82.64;95404.09;4895682;28;20670;-65
2022/04/09 07:36:02;;;;;;;11.13;7.53;;;6.00;74.30;;;3.94;82.42;95402.78;4874811;28;20428;-65
2022/04/09 07:38:31;;;;;;;12.57;9.35;;;6.10;72.90;;;4.08;82.25;95399.50;4938102;28;20371;-63
2022/04/09 07:40:57;;;;;;;11.90;7.32;;;6.30;72.60;;;4.21;81.54;95402.41;4929552;28;20266;-63
2022/04/09 07:43:23;;;;;;;15.25;10.02;;;6.40;72.00;;;4.28;81.00;95398.13;4897096;28;20362;-67
2022/04/09 07:45:49;;;;;;;11.88;7.72;;;6.40;70.80;;;4.40;80.35;95398.59;4904101;28;20276;-67
2022/04/09 07:48:16;;;;;;;12.32;8.32;;;6.60;70.50;;;4.66;80.64;95408.75;4929382;28;20357;-62
2022/04/09 07:50:42;;;;;;;9.57;6.60;;;7.40;67.90;;;4.89;79.04;95409.63;4931224;28;20543;-65
2022/04/09 07:53:09;;;;;;;10.57;6.78;;;7.60;65.20;;;5.14;79.29;95414.69;4914579;28;20435;-64
2022/04/09 07:55:35;;;;;;;8.20;5.20;;;8.00;64.20;;;5.34;78.06;95410.66;4906959;28;20426;-64
2022/04/09 07:58:02;;;;;;;8.30;6.07;;;7.90;61.90;;;5.50;76.03;95407.16;4921596;28;20608;-66
2022/04/09 08:00:28;;;;;;;6.95;5.15;;;8.10;62.30;;;5.71;75.33;95414.31;4949797;28;20535;-63
2022/04/09 08:02:54;;;;;;;6.78;3.70;;;8.40;61.50;;;5.87;74.21;95408.94;4896083;28;20328;-63
2022/04/09 08:05:20;;;;;;;6.38;3.95;;;8.30;59.00;;;6.00;72.75;95411.81;4903766;28;20322;-64
2022/04/09 08:07:49;;;;;;;6.60;4.40;;;8.50;59.10;;;6.06;72.19;95418.91;4883232;28;20367;-64
2022/04/09 08:10:15;;;;;;;7.00;4.35;;;8.30;59.60;;;6.11;72.23;95408.78;4885330;28;20405;-64
2022/04/09 08:12:42;;;;;;;6.30;4.43;;;8.20;60.30;;;6.08;71.64;95427.38;4937519;28;20361;-61
2022/04/09 08:15:09;;;;;;;5.82;4.25;;;8.00;59.70;;;6.04;70.60;95425.31;4937163;28;20498;-64
2022/04/09 08:17:41;;;;;;;8.40;4.20;;;8.00;59.40;;;6.06;68.02;95429.38;4881692;28;20332;-63
2022/04/09 08:20:08;;;;;;;9.27;3.80;;;8.10;58.50;;;6.16;70.32;95433.53;4919143;28;20374;-63
2022/04/09 08:22:35;;;;;;;8.05;4.30;;;8.40;59.00;;;6.34;70.04;95423.56;4903383;28;20913;-64
2022/04/09 08:25:02;;;;;;;4.05;3.13;;;8.90;58.40;;;6.43;67.60;95432.94;4910425;28;20303;-66
2022/04/09 08:27:28;;;;;;;6.40;3.30;;;8.60;55.80;;;6.41;68.26;95434.91;4918468;28;20443;-66
2022/04/09 08:29:54;;;;;;;7.18;3.53;;;8.30;57.60;;;6.45;67.83;95436.19;4896820;28;20833;-66
2022/04/09 08:32:22;;;;;;;4.63;3.28;;;8.60;59.00;;;6.57;66.93;95442.59;4902502;28;20320;-66
2022/04/09 08:34:49;;;;;;;6.65;3.08;;;9.10;56.80;;;6.81;66.95;95438.88;4921210;28;20343;-66
2022/04/09 08:37:15;;;;;;;4.20;2.38;;;9.40;54.30;;;6.92;66.13;95442.81;4890814;28;20723;-66
2022/04/09 08:39:41;;;;;;;6.43;2.78;;;9.30;54.20;;;7.14;65.50;95439.28;4905137;28;20381;-66
2022/04/09 08:42:07;;;;;;;5.07;3.40;;;10.10;53.60;;;7.31;65.72;95443.31;4906685;28;20611;-65
2022/04/09 08:44:35;;;;;;;7.47;3.70;;;9.70;54.20;;;7.38;64.83;95441.56;4882322;28;20326;-63
2022/04/09 08:47:01;;;;;;;5.20;2.95;;;9.60;54.90;;;7.51;64.31;95442.72;4884523;28;20339;-65
2022/04/09 08:49:28;;;;;;;5.90;3.08;;;9.70;54.40;;;7.45;63.42;95451.28;4910693;28;20370;-65
2022/04/09 08:51:54;;;;;;;4.55;3.30;;;9.40;53.20;;;7.43;63.48;95458.50;4934547;28;20469;-65
2022/04/09 08:54:21;;;;;;;7.95;3.13;;;9.40;54.30;;;7.59;62.71;95458.28;4891228;28;20359;-67
2022/04/09 08:56:49;;;;;;;4.93;2.88;;;10.10;51.40;;;7.87;62.21;95456.53;4920041;28;20324;-67
2022/04/09 08:59:15;;;;;;;5.85;2.80;;;10.40;51.40;;;8.06;61.83;95459.53;4904214;28;20390;-67
2022/04/09 09:01:42;;;;;;;8.23;5.32;;;10.50;51.00;;;8.10;61.03;95461.56;4917093;28;20914;-66
2022/04/09 09:04:07;;;;;;;8.48;5.65;;;10.30;50.60;;;8.12;60.75;95458.75;4877836;28;20351;-66
2022/04/09 09:06:39;;;;;;;7.15;3.50;;;10.20;50.70;;;8.04;59.69;95462.31;4903960;28;20417;-68
2022/04/09 09:09:05;;;;;;;4.30;2.72;;;9.90;51.30;;;7.92;59.95;95466.44;4882495;28;20404;-64
2022/04/09 09:11:46;;;;;;;7.15;4.18;;;9.70;51.00;;;7.90;57.98;95465.81;4893687;28;20362;-64
2022/04/09 09:14:24;;;;;;;4.10;2.60;;;10.10;51.10;;;7.86;57.83;95470.63;4915939;28;20315;-64
2022/04/09 09:16:50;;;;;;;4.95;2.50;;;9.80;51.70;;;7.84;59.80;95475.25;4897433;28;20450;-64
2022/04/09 09:19:16;;;;;;;3.30;2.30;;;10.10;51.90;;;7.83;59.32;95481.47;4917052;28;20400;-62
2022/04/09 09:21:55;;;;;;;4.28;2.42;;;9.90;50.80;;;7.76;57.07;95478.00;4873082;28;20287;-63
2022/04/09 09:24:22;;;;;;;3.38;2.10;;;9.70;51.60;;;7.66;58.81;95483.50;4904719;28;20874;-64
2022/04/09 09:26:58;;;;;;;4.75;3.00;;;9.30;51.30;;;7.57;57.30;95486.44;4919966;28;20355;-63
2022/04/09 09:29:28;;;;;;;4.32;2.00;;;9.40;51.40;;;7.59;57.91;95489.69;4902456;28;20531;-63
2022/04/09 09:31:58;;;;;;;3.30;2.17;;;9.60;51.50;;;7.67;58.00;95492.19;4935709;28;20490;-65
2022/04/09 09:34:25;;;;;;;5.22;2.28;;;10.00;50.20;;;7.69;59.34;95490.19;4901978;28;20423;-65
2022/04/09 09:36:51;;;;;;;6.55;2.80;;;9.90;52.30;;;7.74;60.55;95498.31;4905644;28;20420;-64
2022/04/09 09:39:25;;;;;;;5.30;2.78;;;10.10;53.20;;;7.75;60.84;95494.69;4890320;28;20207;-64
2022/04/09 09:41:59;;;;;;;5.22;2.65;;;10.10;53.60;;;7.80;59.85;95497.56;4872508;28;20354;-64
2022/04/09 09:44:32;;;;;;;7.45;2.20;;;10.20;52.10;;;7.82;58.21;95500.81;4899356;28;20343;-64
2022/04/09 09:47:12;;;;;;;3.28;1.50;;;10.10;49.70;;;7.77;55.39;95497.94;4887635;28;20564;-64
2022/04/09 09:49:58;;;;;;;2.80;1.48;;;9.60;48.00;;;7.59;54.79;95505.38;4899176;28;20711;-65
2022/04/09 09:52:31;;;;;;;4.18;2.03;;;9.30;49.30;;;7.59;55.61;95505.38;4893117;28;20287;-64
2022/04/09 09:55:10;;;;;;;3.25;1.80;;;9.50;49.90;;;7.67;55.97;95510.50;4946249;28;20567;-66
2022/04/09 09:57:38;;;;;;;4.15;2.00;;;10.00;49.50;;;7.87;56.78;95508.91;4877655;28;20409;-64
2022/04/09 10:00:11;;;;;;;5.82;2.42;;;10.80;47.40;;;8.32;56.37;95509.50;4872864;28;20311;-65
2022/04/09 10:02:38;;;;;;;4.65;2.03;;;11.60;46.40;;;8.71;56.69;95506.41;4917737;28;20377;-66
2022/04/09 10:05:05;;;;;;;2.92;1.42;;;12.10;44.60;;;8.97;55.01;95495.28;4899755;28;20328;-65
2022/04/09 10:07:31;;;;;;;2.83;1.58;;;12.30;42.50;;;9.41;54.62;95501.94;4915541;28;20471;-65
2022/04/09 10:10:02;;;;;;;3.10;1.30;;;13.10;42.50;;;10.13;51.73;95501.31;4908482;28;20296;-65
2022/04/09 10:12:28;;;;;;;4.72;1.27;;;13.90;39.30;;;10.47;51.84;95504.81;4898132;28;20379;-64
2022/04/09 10:14:58;;;;;;;3.95;1.30;;;13.50;38.50;;;10.84;48.38;95493.63;4932495;28;20690;-64
2022/04/09 10:17:26;;;;;;;3.13;1.08;;;14.00;38.50;;;11.61;49.82;95505.97;4904285;28;20548;-64
2022/04/09 10:19:57;;;;;;;4.57;2.10;;;15.40;36.30;;;12.37;46.08;95497.22;4858939;28;20405;-63
2022/04/09 10:22:35;;;;;;;5.30;1.63;;;15.90;34.70;;;13.21;46.45;95490.59;4898135;28;20646;-64
2022/04/09 10:25:01;;;;;;;4.43;1.77;;;16.80;33.30;;;13.80;46.77;95494.34;4884476;28;20563;-65
2022/04/09 10:27:44;;;;;;;5.55;1.40;;;17.60;33.20;;;14.41;41.16;95480.03;4897852;28;20390;-65
2022/04/09 10:30:23;;;;;;;3.75;1.50;;;17.60;31.40;;;14.47;42.49;95488.94;4905150;28;20370;-63